This is the latest recevied weather packets stored in our database for station/object VK3AGD-9. If no packets are shown the sender has not sent any weather packets the latest 10 day(s).
| Time | Temp. | Humidity | Pressure | Rain* | Wind** | Luminosity | Snow |
|---|---|---|---|---|---|---|---|
| 1777789873 | 14.44° C | 99% | - | 0 mm | - | - | - |
| 1777789010 | 14.44° C | 99% | - | 0 mm | - | - | - |
| 1777788049 | 15° C | 99% | - | 0 mm | - | - | - |
| 1777787186 | 15° C | 98% | - | 0 mm | - | - | - |
| 1777786225 | 15.56° C | 97% | - | 0 mm | - | - | - |
| 1777785362 | 17.22° C | 94% | - | 0 mm | - | - | - |
| 1777784498 | 17.78° C | 91% | - | 0 mm | - | - | - |
| 1777783538 | 17.78° C | 91% | - | 0 mm | - | - | - |
| 1777782673 | 17.78° C | 90% | - | 0 mm | - | - | - |
| 1777781809 | 17.78° C | 90% | - | 0 mm | - | - | - |
| 1777780849 | 17.78° C | 90% | - | 0 mm | - | - | - |
| 1777779985 | 17.22° C | 92% | - | 0 mm | - | - | - |
| 1777779027 | 17.22° C | 91% | - | 0 mm | - | - | - |
| 1777778162 | 17.22° C | 93% | - | 0 mm | - | - | - |
| 1777777298 | 17.22° C | 94% | - | 0 mm | - | - | - |
| 1777776337 | 16.67° C | 96% | - | 0 mm | - | - | - |
| 1777775474 | 16.67° C | 97% | - | 0 mm | - | - | - |
| 1777774610 | 16.67° C | 97% | - | 1.02 mm | - | - | - |
| 1777773650 | 16.11° C | 97% | - | 1.52 mm | - | - | - |
| 1777772786 | 16.11° C | 98% | - | 1.02 mm | - | - | - |
| 1777771826 | 16.67° C | 98% | - | 0.76 mm | - | - | - |
| 1777770962 | 16.67° C | 98% | - | 0.51 mm | - | - | - |
| 1777770097 | 16.67° C | 97% | - | 0 mm | - | - | - |
| 1777769138 | 16.67° C | 95% | - | 0 mm | - | - | - |
| 1777768273 | 17.78° C | 88% | - | 0 mm | - | - | - |
* Rain latest hour (hover to see other rain measurements)
** Current wind speed in m/s (hover to see current wind gust speed)